sensor_id;sensor_type;location;lat;lon;timestamp;P1;durP1;ratioP1;P2;durP2;ratioP2
21601;SDS011;10963;50.934;4.668;2023-07-13T00:00:19;3.50;;;2.00;;
21601;SDS011;10963;50.934;4.668;2023-07-13T00:02:45;9.50;;;1.70;;
21601;SDS011;10963;50.934;4.668;2023-07-13T00:05:13;5.17;;;2.00;;
21601;SDS011;10963;50.934;4.668;2023-07-13T00:07:39;7.73;;;1.97;;
21601;SDS011;10963;50.934;4.668;2023-07-13T00:10:07;3.83;;;1.73;;
21601;SDS011;10963;50.934;4.668;2023-07-13T00:12:36;4.30;;;1.90;;
21601;SDS011;10963;50.934;4.668;2023-07-13T00:15:09;5.00;;;1.50;;
21601;SDS011;10963;50.934;4.668;2023-07-13T00:17:50;6.63;;;1.80;;
21601;SDS011;10963;50.934;4.668;2023-07-13T00:20:20;8.27;;;1.60;;
21601;SDS011;10963;50.934;4.668;2023-07-13T00:22:48;4.87;;;2.40;;
21601;SDS011;10963;50.934;4.668;2023-07-13T00:25:17;3.90;;;1.93;;
21601;SDS011;10963;50.934;4.668;2023-07-13T00:27:43;7.30;;;1.80;;
21601;SDS011;10963;50.934;4.668;2023-07-13T00:30:09;10.53;;;2.27;;
21601;SDS011;10963;50.934;4.668;2023-07-13T00:32:38;10.07;;;2.07;;
21601;SDS011;10963;50.934;4.668;2023-07-13T00:35:07;6.80;;;1.90;;
21601;SDS011;10963;50.934;4.668;2023-07-13T00:37:33;6.77;;;2.37;;
21601;SDS011;10963;50.934;4.668;2023-07-13T00:40:03;3.90;;;1.70;;
21601;SDS011;10963;50.934;4.668;2023-07-13T00:42:32;6.07;;;2.30;;
21601;SDS011;10963;50.934;4.668;2023-07-13T00:45:02;4.90;;;1.90;;
21601;SDS011;10963;50.934;4.668;2023-07-13T00:47:39;6.97;;;2.07;;
21601;SDS011;10963;50.934;4.668;2023-07-13T00:50:10;9.00;;;2.30;;
21601;SDS011;10963;50.934;4.668;2023-07-13T00:52:43;7.73;;;2.13;;
21601;SDS011;10963;50.934;4.668;2023-07-13T00:55:11;5.07;;;1.67;;
21601;SDS011;10963;50.934;4.668;2023-07-13T00:57:41;3.27;;;2.13;;
21601;SDS011;10963;50.934;4.668;2023-07-13T01:00:12;8.73;;;1.80;;
21601;SDS011;10963;50.934;4.668;2023-07-13T01:02:43;5.67;;;1.90;;
21601;SDS011;10963;50.934;4.668;2023-07-13T01:05:17;4.73;;;1.70;;
21601;SDS011;10963;50.934;4.668;2023-07-13T01:07:45;5.57;;;2.03;;
21601;SDS011;10963;50.934;4.668;2023-07-13T01:10:14;3.07;;;1.90;;
21601;SDS011;10963;50.934;4.668;2023-07-13T01:12:43;9.53;;;2.37;;
21601;SDS011;10963;50.934;4.668;2023-07-13T01:15:55;7.63;;;1.87;;
21601;SDS011;10963;50.934;4.668;2023-07-13T01:18:01;11.40;;;1.90;;
21601;SDS011;10963;50.934;4.668;2023-07-13T01:20:28;3.57;;;1.60;;
21601;SDS011;10963;50.934;4.668;2023-07-13T01:22:56;5.83;;;1.80;;
21601;SDS011;10963;50.934;4.668;2023-07-13T01:25:22;8.13;;;2.43;;
21601;SDS011;10963;50.934;4.668;2023-07-13T01:27:48;8.47;;;2.17;;
21601;SDS011;10963;50.934;4.668;2023-07-13T01:30:16;7.97;;;2.13;;
21601;SDS011;10963;50.934;4.668;2023-07-13T01:32:42;9.33;;;1.93;;
21601;SDS011;10963;50.934;4.668;2023-07-13T01:35:08;6.93;;;1.93;;
21601;SDS011;10963;50.934;4.668;2023-07-13T01:37:33;3.80;;;2.03;;
21601;SDS011;10963;50.934;4.668;2023-07-13T01:40:01;6.87;;;1.93;;
21601;SDS011;10963;50.934;4.668;2023-07-13T01:42:33;5.53;;;1.93;;
21601;SDS011;10963;50.934;4.668;2023-07-13T01:44:59;6.50;;;2.10;;
21601;SDS011;10963;50.934;4.668;2023-07-13T01:47:25;7.10;;;2.00;;
21601;SDS011;10963;50.934;4.668;2023-07-13T01:49:51;13.17;;;2.60;;
21601;SDS011;10963;50.934;4.668;2023-07-13T01:52:17;8.27;;;1.80;;
21601;SDS011;10963;50.934;4.668;2023-07-13T01:54:45;9.70;;;2.00;;
21601;SDS011;10963;50.934;4.668;2023-07-13T01:57:15;4.80;;;1.90;;
21601;SDS011;10963;50.934;4.668;2023-07-13T01:59:41;4.73;;;1.57;;
21601;SDS011;10963;50.934;4.668;2023-07-13T02:02:08;4.47;;;2.53;;
21601;SDS011;10963;50.934;4.668;2023-07-13T02:04:34;7.00;;;2.07;;
21601;SDS011;10963;50.934;4.668;2023-07-13T02:07:04;5.80;;;2.27;;
21601;SDS011;10963;50.934;4.668;2023-07-13T02:09:30;4.93;;;1.83;;
21601;SDS011;10963;50.934;4.668;2023-07-13T02:11:58;7.73;;;2.00;;
21601;SDS011;10963;50.934;4.668;2023-07-13T02:14:24;5.20;;;2.13;;
21601;SDS011;10963;50.934;4.668;2023-07-13T02:16:50;5.80;;;1.80;;
21601;SDS011;10963;50.934;4.668;2023-07-13T02:19:15;2.90;;;1.97;;
21601;SDS011;10963;50.934;4.668;2023-07-13T02:21:41;7.30;;;2.53;;
21601;SDS011;10963;50.934;4.668;2023-07-13T02:24:11;7.47;;;2.10;;
21601;SDS011;10963;50.934;4.668;2023-07-13T02:26:42;6.90;;;1.73;;
21601;SDS011;10963;50.934;4.668;2023-07-13T02:29:13;7.53;;;2.53;;
21601;SDS011;10963;50.934;4.668;2023-07-13T02:31:39;5.03;;;2.17;;
21601;SDS011;10963;50.934;4.668;2023-07-13T02:34:10;3.53;;;1.70;;
21601;SDS011;10963;50.934;4.668;2023-07-13T02:36:41;5.70;;;2.03;;
21601;SDS011;10963;50.934;4.668;2023-07-13T02:39:06;7.33;;;1.87;;
21601;SDS011;10963;50.934;4.668;2023-07-13T02:41:36;8.60;;;2.50;;
21601;SDS011;10963;50.934;4.668;2023-07-13T02:44:04;8.03;;;2.13;;
21601;SDS011;10963;50.934;4.668;2023-07-13T02:46:31;6.40;;;2.17;;
21601;SDS011;10963;50.934;4.668;2023-07-13T02:49:00;5.47;;;1.80;;
21601;SDS011;10963;50.934;4.668;2023-07-13T02:51:26;6.10;;;2.10;;
21601;SDS011;10963;50.934;4.668;2023-07-13T02:53:52;5.53;;;2.00;;
21601;SDS011;10963;50.934;4.668;2023-07-13T02:56:24;7.67;;;2.00;;
21601;SDS011;10963;50.934;4.668;2023-07-13T02:58:51;5.17;;;2.00;;
21601;SDS011;10963;50.934;4.668;2023-07-13T03:01:17;8.50;;;2.13;;
21601;SDS011;10963;50.934;4.668;2023-07-13T03:03:53;10.57;;;2.70;;
21601;SDS011;10963;50.934;4.668;2023-07-13T03:06:21;9.27;;;2.63;;
21601;SDS011;10963;50.934;4.668;2023-07-13T03:08:47;3.63;;;1.80;;
21601;SDS011;10963;50.934;4.668;2023-07-13T03:11:17;6.10;;;2.00;;
21601;SDS011;10963;50.934;4.668;2023-07-13T03:13:46;7.77;;;2.20;;
21601;SDS011;10963;50.934;4.668;2023-07-13T03:16:13;7.03;;;2.00;;
21601;SDS011;10963;50.934;4.668;2023-07-13T03:18:44;9.50;;;2.63;;
21601;SDS011;10963;50.934;4.668;2023-07-13T03:21:12;9.73;;;2.20;;
21601;SDS011;10963;50.934;4.668;2023-07-13T03:23:38;5.77;;;1.90;;
21601;SDS011;10963;50.934;4.668;2023-07-13T03:26:13;9.63;;;2.37;;
21601;SDS011;10963;50.934;4.668;2023-07-13T03:28:43;6.67;;;2.13;;
21601;SDS011;10963;50.934;4.668;2023-07-13T03:31:16;9.67;;;2.43;;
21601;SDS011;10963;50.934;4.668;2023-07-13T03:33:46;9.23;;;2.27;;
21601;SDS011;10963;50.934;4.668;2023-07-13T03:36:17;7.57;;;2.00;;
21601;SDS011;10963;50.934;4.668;2023-07-13T03:38:50;4.83;;;2.40;;
21601;SDS011;10963;50.934;4.668;2023-07-13T03:41:22;10.57;;;2.60;;
21601;SDS011;10963;50.934;4.668;2023-07-13T03:43:51;7.23;;;2.40;;
21601;SDS011;10963;50.934;4.668;2023-07-13T03:46:19;6.90;;;2.40;;
21601;SDS011;10963;50.934;4.668;2023-07-13T03:48:45;6.33;;;2.67;;
21601;SDS011;10963;50.934;4.668;2023-07-13T03:51:12;6.37;;;2.30;;
21601;SDS011;10963;50.934;4.668;2023-07-13T03:53:43;8.33;;;2.13;;
21601;SDS011;10963;50.934;4.668;2023-07-13T03:56:10;6.47;;;2.00;;
21601;SDS011;10963;50.934;4.668;2023-07-13T03:58:42;11.03;;;2.37;;
21601;SDS011;10963;50.934;4.668;2023-07-13T04:01:09;6.37;;;2.37;;
21601;SDS011;10963;50.934;4.668;2023-07-13T04:03:38;7.43;;;2.73;;
21601;SDS011;10963;50.934;4.668;2023-07-13T04:06:06;6.80;;;2.20;;
21601;SDS011;10963;50.934;4.668;2023-07-13T04:08:34;9.17;;;2.43;;
21601;SDS011;10963;50.934;4.668;2023-07-13T04:11:02;9.63;;;2.47;;
21601;SDS011;10963;50.934;4.668;2023-07-13T04:13:30;6.43;;;2.50;;
21601;SDS011;10963;50.934;4.668;2023-07-13T04:16:00;11.27;;;2.47;;
21601;SDS011;10963;50.934;4.668;2023-07-13T04:18:26;6.57;;;1.90;;
21601;SDS011;10963;50.934;4.668;2023-07-13T04:20:52;7.83;;;2.97;;
21601;SDS011;10963;50.934;4.668;2023-07-13T04:23:20;7.77;;;1.90;;
21601;SDS011;10963;50.934;4.668;2023-07-13T04:25:48;4.60;;;2.27;;
21601;SDS011;10963;50.934;4.668;2023-07-13T04:28:20;6.57;;;2.77;;
21601;SDS011;10963;50.934;4.668;2023-07-13T04:30:49;8.53;;;2.47;;
21601;SDS011;10963;50.934;4.668;2023-07-13T04:33:18;7.40;;;2.70;;
21601;SDS011;10963;50.934;4.668;2023-07-13T04:35:47;8.77;;;2.83;;
21601;SDS011;10963;50.934;4.668;2023-07-13T04:38:16;10.17;;;2.30;;
21601;SDS011;10963;50.934;4.668;2023-07-13T04:40:47;8.57;;;2.50;;
21601;SDS011;10963;50.934;4.668;2023-07-13T04:43:18;10.57;;;2.63;;
21601;SDS011;10963;50.934;4.668;2023-07-13T04:45:49;8.43;;;2.43;;
21601;SDS011;10963;50.934;4.668;2023-07-13T04:48:18;6.40;;;2.33;;
21601;SDS011;10963;50.934;4.668;2023-07-13T04:50:45;7.03;;;2.30;;
21601;SDS011;10963;50.934;4.668;2023-07-13T04:53:11;5.83;;;2.40;;
21601;SDS011;10963;50.934;4.668;2023-07-13T04:55:40;8.60;;;2.27;;
21601;SDS011;10963;50.934;4.668;2023-07-13T04:58:11;9.50;;;2.60;;
21601;SDS011;10963;50.934;4.668;2023-07-13T05:00:36;17.03;;;7.60;;
21601;SDS011;10963;50.934;4.668;2023-07-13T05:03:02;20.33;;;5.27;;
21601;SDS011;10963;50.934;4.668;2023-07-13T05:05:30;9.50;;;3.07;;
21601;SDS011;10963;50.934;4.668;2023-07-13T05:07:56;6.37;;;2.53;;
21601;SDS011;10963;50.934;4.668;2023-07-13T05:10:22;14.80;;;3.60;;
21601;SDS011;10963;50.934;4.668;2023-07-13T05:12:48;12.43;;;2.90;;
21601;SDS011;10963;50.934;4.668;2023-07-13T05:15:20;6.87;;;2.70;;
21601;SDS011;10963;50.934;4.668;2023-07-13T05:17:50;10.90;;;2.70;;
21601;SDS011;10963;50.934;4.668;2023-07-13T05:20:21;6.63;;;2.50;;
21601;SDS011;10963;50.934;4.668;2023-07-13T05:22:46;8.77;;;2.90;;
21601;SDS011;10963;50.934;4.668;2023-07-13T05:25:12;11.27;;;3.00;;
21601;SDS011;10963;50.934;4.668;2023-07-13T05:27:38;14.57;;;3.60;;
21601;SDS011;10963;50.934;4.668;2023-07-13T05:30:05;9.93;;;2.80;;
21601;SDS011;10963;50.934;4.668;2023-07-13T05:32:36;8.50;;;2.50;;
21601;SDS011;10963;50.934;4.668;2023-07-13T05:35:01;9.17;;;2.93;;
21601;SDS011;10963;50.934;4.668;2023-07-13T05:37:30;13.83;;;3.10;;
21601;SDS011;10963;50.934;4.668;2023-07-13T05:39:56;8.97;;;2.73;;
21601;SDS011;10963;50.934;4.668;2023-07-13T05:42:21;9.97;;;2.80;;
21601;SDS011;10963;50.934;4.668;2023-07-13T05:44:47;9.30;;;2.93;;
21601;SDS011;10963;50.934;4.668;2023-07-13T05:47:15;7.50;;;2.70;;
21601;SDS011;10963;50.934;4.668;2023-07-13T05:49:41;7.17;;;2.60;;
21601;SDS011;10963;50.934;4.668;2023-07-13T05:52:07;14.17;;;2.93;;
21601;SDS011;10963;50.934;4.668;2023-07-13T05:54:33;10.70;;;3.30;;
21601;SDS011;10963;50.934;4.668;2023-07-13T05:56:58;10.63;;;3.07;;
21601;SDS011;10963;50.934;4.668;2023-07-13T05:59:26;5.60;;;2.53;;
21601;SDS011;10963;50.934;4.668;2023-07-13T06:01:55;8.57;;;3.03;;
21601;SDS011;10963;50.934;4.668;2023-07-13T06:04:20;13.13;;;3.00;;
21601;SDS011;10963;50.934;4.668;2023-07-13T06:06:48;11.13;;;3.00;;
21601;SDS011;10963;50.934;4.668;2023-07-13T06:09:16;9.60;;;2.63;;
21601;SDS011;10963;50.934;4.668;2023-07-13T06:11:44;10.53;;;2.80;;
21601;SDS011;10963;50.934;4.668;2023-07-13T06:14:12;11.17;;;3.20;;
21601;SDS011;10963;50.934;4.668;2023-07-13T06:16:39;14.17;;;3.40;;
21601;SDS011;10963;50.934;4.668;2023-07-13T06:19:10;11.40;;;3.53;;
21601;SDS011;10963;50.934;4.668;2023-07-13T06:21:36;11.67;;;3.40;;
21601;SDS011;10963;50.934;4.668;2023-07-13T06:24:02;14.00;;;3.17;;
21601;SDS011;10963;50.934;4.668;2023-07-13T06:26:28;8.90;;;2.93;;
21601;SDS011;10963;50.934;4.668;2023-07-13T06:28:57;11.03;;;3.13;;
21601;SDS011;10963;50.934;4.668;2023-07-13T06:31:25;9.20;;;3.53;;
21601;SDS011;10963;50.934;4.668;2023-07-13T06:33:52;10.20;;;3.30;;
21601;SDS011;10963;50.934;4.668;2023-07-13T06:36:23;9.57;;;3.07;;
21601;SDS011;10963;50.934;4.668;2023-07-13T06:38:49;9.03;;;3.10;;
21601;SDS011;10963;50.934;4.668;2023-07-13T06:41:16;5.33;;;2.87;;
21601;SDS011;10963;50.934;4.668;2023-07-13T06:43:44;6.83;;;2.73;;
21601;SDS011;10963;50.934;4.668;2023-07-13T06:46:12;10.83;;;2.77;;
21601;SDS011;10963;50.934;4.668;2023-07-13T06:48:38;11.57;;;3.30;;
21601;SDS011;10963;50.934;4.668;2023-07-13T06:51:04;7.23;;;3.00;;
21601;SDS011;10963;50.934;4.668;2023-07-13T06:53:32;10.97;;;3.57;;
21601;SDS011;10963;50.934;4.668;2023-07-13T06:55:58;7.20;;;2.97;;
21601;SDS011;10963;50.934;4.668;2023-07-13T06:58:24;15.10;;;2.83;;
21601;SDS011;10963;50.934;4.668;2023-07-13T07:00:52;12.00;;;3.07;;
21601;SDS011;10963;50.934;4.668;2023-07-13T07:03:18;15.17;;;3.20;;
21601;SDS011;10963;50.934;4.668;2023-07-13T07:05:48;11.37;;;3.90;;
21601;SDS011;10963;50.934;4.668;2023-07-13T07:08:16;11.17;;;3.37;;
21601;SDS011;10963;50.934;4.668;2023-07-13T07:10:42;7.13;;;3.07;;
21601;SDS011;10963;50.934;4.668;2023-07-13T07:13:08;7.47;;;2.70;;
21601;SDS011;10963;50.934;4.668;2023-07-13T07:15:34;13.50;;;3.00;;
21601;SDS011;10963;50.934;4.668;2023-07-13T07:18:00;8.87;;;2.73;;
21601;SDS011;10963;50.934;4.668;2023-07-13T07:20:26;12.70;;;3.00;;
21601;SDS011;10963;50.934;4.668;2023-07-13T07:22:57;9.00;;;2.90;;
21601;SDS011;10963;50.934;4.668;2023-07-13T07:25:23;11.30;;;2.77;;
21601;SDS011;10963;50.934;4.668;2023-07-13T07:27:51;10.60;;;2.83;;
21601;SDS011;10963;50.934;4.668;2023-07-13T07:30:17;11.33;;;2.90;;
21601;SDS011;10963;50.934;4.668;2023-07-13T07:32:43;9.07;;;3.00;;
21601;SDS011;10963;50.934;4.668;2023-07-13T07:35:13;8.43;;;2.50;;
21601;SDS011;10963;50.934;4.668;2023-07-13T07:37:39;9.50;;;4.03;;
21601;SDS011;10963;50.934;4.668;2023-07-13T07:40:05;13.67;;;3.43;;
21601;SDS011;10963;50.934;4.668;2023-07-13T07:42:31;8.57;;;2.80;;
21601;SDS011;10963;50.934;4.668;2023-07-13T07:44:59;8.53;;;2.80;;
21601;SDS011;10963;50.934;4.668;2023-07-13T07:47:28;16.97;;;3.27;;
21601;SDS011;10963;50.934;4.668;2023-07-13T07:49:56;7.57;;;2.37;;
21601;SDS011;10963;50.934;4.668;2023-07-13T07:52:22;7.47;;;2.40;;
21601;SDS011;10963;50.934;4.668;2023-07-13T07:54:50;11.73;;;3.10;;
21601;SDS011;10963;50.934;4.668;2023-07-13T07:57:18;6.83;;;2.97;;
21601;SDS011;10963;50.934;4.668;2023-07-13T07:59:44;13.57;;;3.03;;
21601;SDS011;10963;50.934;4.668;2023-07-13T08:02:10;9.83;;;3.20;;
21601;SDS011;10963;50.934;4.668;2023-07-13T08:04:36;15.02;;;2.97;;
21601;SDS011;10963;50.934;4.668;2023-07-13T08:07:02;6.90;;;2.40;;
21601;SDS011;10963;50.934;4.668;2023-07-13T08:09:30;11.98;;;3.10;;
21601;SDS011;10963;50.934;4.668;2023-07-13T08:11:58;8.20;;;2.40;;
21601;SDS011;10963;50.934;4.668;2023-07-13T08:14:23;5.68;;;2.70;;
21601;SDS011;10963;50.934;4.668;2023-07-13T08:16:49;9.60;;;3.08;;
21601;SDS011;10963;50.934;4.668;2023-07-13T08:19:15;10.68;;;3.10;;
21601;SDS011;10963;50.934;4.668;2023-07-13T08:21:40;4.97;;;2.60;;
21601;SDS011;10963;50.934;4.668;2023-07-13T08:24:09;8.25;;;2.90;;
21601;SDS011;10963;50.934;4.668;2023-07-13T08:26:35;6.53;;;2.67;;
21601;SDS011;10963;50.934;4.668;2023-07-13T08:29:00;10.48;;;3.08;;
21601;SDS011;10963;50.934;4.668;2023-07-13T08:31:29;7.30;;;2.60;;
21601;SDS011;10963;50.934;4.668;2023-07-13T08:33:55;9.90;;;2.92;;
21601;SDS011;10963;50.934;4.668;2023-07-13T08:36:23;8.15;;;2.53;;
21601;SDS011;10963;50.934;4.668;2023-07-13T08:38:55;8.15;;;2.83;;
21601;SDS011;10963;50.934;4.668;2023-07-13T08:41:23;6.63;;;2.50;;
21601;SDS011;10963;50.934;4.668;2023-07-13T08:43:55;8.60;;;2.50;;
21601;SDS011;10963;50.934;4.668;2023-07-13T08:46:38;7.20;;;2.85;;
21601;SDS011;10963;50.934;4.668;2023-07-13T08:49:13;5.43;;;2.47;;
21601;SDS011;10963;50.934;4.668;2023-07-13T08:51:45;10.38;;;3.17;;
21601;SDS011;10963;50.934;4.668;2023-07-13T08:54:16;5.68;;;2.47;;
21601;SDS011;10963;50.934;4.668;2023-07-13T08:57:12;10.15;;;3.40;;
21601;SDS011;10963;50.934;4.668;2023-07-13T08:59:41;12.00;;;3.17;;
21601;SDS011;10963;50.934;4.668;2023-07-13T09:04:39;9.20;;;2.77;;
21601;SDS011;10963;50.934;4.668;2023-07-13T09:07:40;3.83;;;2.20;;
21601;SDS011;10963;50.934;4.668;2023-07-13T09:18:07;5.13;;;2.33;;
21601;SDS011;10963;50.934;4.668;2023-07-13T09:23:24;5.28;;;2.60;;
21601;SDS011;10963;50.934;4.668;2023-07-13T09:26:00;5.82;;;2.10;;
21601;SDS011;10963;50.934;4.668;2023-07-13T09:28:33;7.32;;;2.58;;
21601;SDS011;10963;50.934;4.668;2023-07-13T09:31:07;7.43;;;2.70;;
21601;SDS011;10963;50.934;4.668;2023-07-13T09:33:54;8.02;;;2.67;;
21601;SDS011;10963;50.934;4.668;2023-07-13T09:36:22;6.03;;;2.30;;
21601;SDS011;10963;50.934;4.668;2023-07-13T09:44:27;7.18;;;2.58;;
21601;SDS011;10963;50.934;4.668;2023-07-13T09:46:56;8.43;;;2.15;;
21601;SDS011;10963;50.934;4.668;2023-07-13T09:49:25;6.57;;;2.35;;
21601;SDS011;10963;50.934;4.668;2023-07-13T09:51:59;5.72;;;2.13;;
21601;SDS011;10963;50.934;4.668;2023-07-13T09:54:28;6.95;;;2.25;;
21601;SDS011;10963;50.934;4.668;2023-07-13T09:56:57;4.72;;;2.13;;
21601;SDS011;10963;50.934;4.668;2023-07-13T09:59:37;5.45;;;2.15;;
21601;SDS011;10963;50.934;4.668;2023-07-13T10:05:00;5.60;;;2.50;;
21601;SDS011;10963;50.934;4.668;2023-07-13T10:07:31;8.50;;;2.38;;
21601;SDS011;10963;50.934;4.668;2023-07-13T10:10:03;5.93;;;2.20;;
21601;SDS011;10963;50.934;4.668;2023-07-13T10:12:41;8.10;;;2.33;;
21601;SDS011;10963;50.934;4.668;2023-07-13T10:15:13;5.20;;;2.38;;
21601;SDS011;10963;50.934;4.668;2023-07-13T10:17:47;5.38;;;1.98;;
21601;SDS011;10963;50.934;4.668;2023-07-13T10:20:15;3.35;;;2.15;;
21601;SDS011;10963;50.934;4.668;2023-07-13T10:25:37;5.70;;;2.22;;
21601;SDS011;10963;50.934;4.668;2023-07-13T10:31:18;5.95;;;2.30;;
21601;SDS011;10963;50.934;4.668;2023-07-13T10:33:45;3.53;;;1.90;;
21601;SDS011;10963;50.934;4.668;2023-07-13T10:39:01;4.65;;;2.08;;
21601;SDS011;10963;50.934;4.668;2023-07-13T10:41:36;8.63;;;2.40;;
21601;SDS011;10963;50.934;4.668;2023-07-13T10:44:07;4.68;;;2.00;;
21601;SDS011;10963;50.934;4.668;2023-07-13T10:46:42;6.45;;;2.17;;
21601;SDS011;10963;50.934;4.668;2023-07-13T10:49:09;11.50;;;1.80;;
21601;SDS011;10963;50.934;4.668;2023-07-13T10:51:39;5.75;;;1.98;;
21601;SDS011;10963;50.934;4.668;2023-07-13T10:56:42;6.68;;;2.13;;
21601;SDS011;10963;50.934;4.668;2023-07-13T11:01:46;5.72;;;2.03;;
21601;SDS011;10963;50.934;4.668;2023-07-13T11:04:16;6.63;;;2.00;;
21601;SDS011;10963;50.934;4.668;2023-07-13T11:06:49;5.30;;;1.98;;
21601;SDS011;10963;50.934;4.668;2023-07-13T11:12:52;5.22;;;2.30;;
21601;SDS011;10963;50.934;4.668;2023-07-13T11:30:35;6.28;;;2.13;;
21601;SDS011;10963;50.934;4.668;2023-07-13T11:38:41;6.13;;;2.50;;
21601;SDS011;10963;50.934;4.668;2023-07-13T11:43:46;5.45;;;2.70;;
21601;SDS011;10963;50.934;4.668;2023-07-13T11:46:25;2.30;;;2.10;;
21601;SDS011;10963;50.934;4.668;2023-07-13T11:48:54;3.45;;;2.15;;
21601;SDS011;10963;50.934;4.668;2023-07-13T11:53:54;5.35;;;2.10;;
21601;SDS011;10963;50.934;4.668;2023-07-13T11:56:22;6.32;;;2.30;;
21601;SDS011;10963;50.934;4.668;2023-07-13T11:58:53;6.70;;;2.47;;
21601;SDS011;10963;50.934;4.668;2023-07-13T12:01:30;3.28;;;1.73;;
21601;SDS011;10963;50.934;4.668;2023-07-13T12:04:01;4.80;;;2.00;;
21601;SDS011;10963;50.934;4.668;2023-07-13T12:06:35;2.13;;;1.67;;
21601;SDS011;10963;50.934;4.668;2023-07-13T12:09:10;3.93;;;2.07;;
21601;SDS011;10963;50.934;4.668;2023-07-13T12:11:42;9.05;;;2.20;;
21601;SDS011;10963;50.934;4.668;2023-07-13T12:14:13;56.10;;;4.63;;
21601;SDS011;10963;50.934;4.668;2023-07-13T12:16:43;12.67;;;1.80;;
21601;SDS011;10963;50.934;4.668;2023-07-13T12:19:17;3.83;;;1.90;;
21601;SDS011;10963;50.934;4.668;2023-07-13T12:21:56;4.93;;;1.90;;
21601;SDS011;10963;50.934;4.668;2023-07-13T12:24:24;3.47;;;1.70;;
21601;SDS011;10963;50.934;4.668;2023-07-13T12:27:00;2.67;;;1.90;;
21601;SDS011;10963;50.934;4.668;2023-07-13T12:29:32;4.60;;;1.90;;
21601;SDS011;10963;50.934;4.668;2023-07-13T12:31:58;4.83;;;1.97;;
21601;SDS011;10963;50.934;4.668;2023-07-13T12:34:25;6.23;;;2.10;;
21601;SDS011;10963;50.934;4.668;2023-07-13T12:37:00;5.10;;;2.13;;
21601;SDS011;10963;50.934;4.668;2023-07-13T12:39:34;7.43;;;2.47;;
21601;SDS011;10963;50.934;4.668;2023-07-13T12:44:58;2.73;;;1.77;;
21601;SDS011;10963;50.934;4.668;2023-07-13T12:47:48;4.23;;;2.50;;
21601;SDS011;10963;50.934;4.668;2023-07-13T12:50:17;3.10;;;1.90;;
21601;SDS011;10963;50.934;4.668;2023-07-13T12:52:51;4.67;;;2.10;;
21601;SDS011;10963;50.934;4.668;2023-07-13T12:55:20;3.37;;;2.10;;
21601;SDS011;10963;50.934;4.668;2023-07-13T12:57:57;4.13;;;1.83;;
21601;SDS011;10963;50.934;4.668;2023-07-13T13:03:05;4.83;;;2.00;;
21601;SDS011;10963;50.934;4.668;2023-07-13T13:05:44;2.27;;;1.70;;
21601;SDS011;10963;50.934;4.668;2023-07-13T13:08:14;4.00;;;1.80;;
21601;SDS011;10963;50.934;4.668;2023-07-13T13:10:40;3.33;;;2.20;;
21601;SDS011;10963;50.934;4.668;2023-07-13T13:13:06;4.97;;;1.70;;
21601;SDS011;10963;50.934;4.668;2023-07-13T13:15:34;4.40;;;1.83;;
21601;SDS011;10963;50.934;4.668;2023-07-13T13:18:02;4.10;;;1.67;;
21601;SDS011;10963;50.934;4.668;2023-07-13T13:20:33;3.07;;;1.83;;
21601;SDS011;10963;50.934;4.668;2023-07-13T13:22:59;3.87;;;1.87;;
21601;SDS011;10963;50.934;4.668;2023-07-13T13:25:27;3.70;;;1.90;;
21601;SDS011;10963;50.934;4.668;2023-07-13T13:27:53;4.07;;;2.30;;
21601;SDS011;10963;50.934;4.668;2023-07-13T13:30:21;2.17;;;1.90;;
21601;SDS011;10963;50.934;4.668;2023-07-13T13:32:51;4.87;;;2.03;;
21601;SDS011;10963;50.934;4.668;2023-07-13T13:35:18;4.83;;;2.57;;
21601;SDS011;10963;50.934;4.668;2023-07-13T13:37:47;7.70;;;2.63;;
21601;SDS011;10963;50.934;4.668;2023-07-13T13:40:18;2.90;;;2.17;;
21601;SDS011;10963;50.934;4.668;2023-07-13T13:42:48;4.47;;;2.33;;
21601;SDS011;10963;50.934;4.668;2023-07-13T13:45:16;7.27;;;2.67;;
21601;SDS011;10963;50.934;4.668;2023-07-13T13:47:46;2.67;;;2.13;;
21601;SDS011;10963;50.934;4.668;2023-07-13T13:50:14;4.73;;;2.30;;
21601;SDS011;10963;50.934;4.668;2023-07-13T13:52:45;3.57;;;2.03;;
21601;SDS011;10963;50.934;4.668;2023-07-13T13:55:14;3.37;;;2.20;;
21601;SDS011;10963;50.934;4.668;2023-07-13T13:57:43;4.87;;;2.43;;
21601;SDS011;10963;50.934;4.668;2023-07-13T14:00:13;3.27;;;2.20;;
21601;SDS011;10963;50.934;4.668;2023-07-13T14:02:40;4.93;;;2.27;;
21601;SDS011;10963;50.934;4.668;2023-07-13T14:05:12;3.93;;;2.40;;
21601;SDS011;10963;50.934;4.668;2023-07-13T14:07:39;5.10;;;2.50;;
21601;SDS011;10963;50.934;4.668;2023-07-13T14:10:12;5.13;;;2.03;;
21601;SDS011;10963;50.934;4.668;2023-07-13T14:12:42;5.23;;;2.53;;
21601;SDS011;10963;50.934;4.668;2023-07-13T14:17:48;4.87;;;1.93;;
21601;SDS011;10963;50.934;4.668;2023-07-13T14:20:17;3.57;;;1.90;;
21601;SDS011;10963;50.934;4.668;2023-07-13T14:22:49;3.75;;;1.63;;
21601;SDS011;10963;50.934;4.668;2023-07-13T14:25:18;6.53;;;1.92;;
21601;SDS011;10963;50.934;4.668;2023-07-13T14:27:48;3.50;;;1.87;;
21601;SDS011;10963;50.934;4.668;2023-07-13T14:30:21;4.83;;;1.80;;
21601;SDS011;10963;50.934;4.668;2023-07-13T14:32:47;3.70;;;1.83;;
21601;SDS011;10963;50.934;4.668;2023-07-13T14:35:14;5.03;;;1.98;;
21601;SDS011;10963;50.934;4.668;2023-07-13T14:37:41;4.03;;;1.60;;
21601;SDS011;10963;50.934;4.668;2023-07-13T14:40:29;1.58;;;1.35;;
21601;SDS011;10963;50.934;4.668;2023-07-13T14:42:58;5.28;;;1.80;;
21601;SDS011;10963;50.934;4.668;2023-07-13T14:45:24;4.63;;;1.90;;
21601;SDS011;10963;50.934;4.668;2023-07-13T14:47:51;2.83;;;1.50;;
21601;SDS011;10963;50.934;4.668;2023-07-13T14:50:20;3.72;;;1.85;;
21601;SDS011;10963;50.934;4.668;2023-07-13T14:52:51;2.67;;;1.90;;
21601;SDS011;10963;50.934;4.668;2023-07-13T14:55:17;5.10;;;1.90;;
21601;SDS011;10963;50.934;4.668;2023-07-13T14:57:51;2.63;;;1.60;;
21601;SDS011;10963;50.934;4.668;2023-07-13T15:00:20;4.50;;;2.00;;
21601;SDS011;10963;50.934;4.668;2023-07-13T15:02:51;2.92;;;1.70;;
21601;SDS011;10963;50.934;4.668;2023-07-13T15:05:24;3.28;;;1.85;;
21601;SDS011;10963;50.934;4.668;2023-07-13T15:07:52;4.43;;;1.60;;
21601;SDS011;10963;50.934;4.668;2023-07-13T15:10:20;6.93;;;2.15;;
21601;SDS011;10963;50.934;4.668;2023-07-13T15:12:51;4.78;;;1.92;;
21601;SDS011;10963;50.934;4.668;2023-07-13T15:15:18;3.10;;;1.60;;
21601;SDS011;10963;50.934;4.668;2023-07-13T15:17:47;3.90;;;1.60;;
21601;SDS011;10963;50.934;4.668;2023-07-13T15:20:27;2.28;;;1.52;;
21601;SDS011;10963;50.934;4.668;2023-07-13T15:22:57;3.03;;;1.77;;
21601;SDS011;10963;50.934;4.668;2023-07-13T15:25:26;2.37;;;1.60;;
21601;SDS011;10963;50.934;4.668;2023-07-13T15:27:55;2.60;;;1.48;;
21601;SDS011;10963;50.934;4.668;2023-07-13T15:30:24;4.35;;;1.92;;
21601;SDS011;10963;50.934;4.668;2023-07-13T15:33:03;4.18;;;1.50;;
21601;SDS011;10963;50.934;4.668;2023-07-13T15:35:39;4.55;;;1.70;;
21601;SDS011;10963;50.934;4.668;2023-07-13T15:38:17;2.40;;;1.33;;
21601;SDS011;10963;50.934;4.668;2023-07-13T15:40:48;2.35;;;1.50;;
21601;SDS011;10963;50.934;4.668;2023-07-13T15:43:15;3.38;;;1.88;;
21601;SDS011;10963;50.934;4.668;2023-07-13T15:45:42;3.20;;;2.05;;
21601;SDS011;10963;50.934;4.668;2023-07-13T15:48:17;2.55;;;1.83;;
21601;SDS011;10963;50.934;4.668;2023-07-13T15:50:55;2.03;;;1.33;;
21601;SDS011;10963;50.934;4.668;2023-07-13T15:53:30;6.60;;;1.98;;
21601;SDS011;10963;50.934;4.668;2023-07-13T15:55:57;4.25;;;1.63;;
21601;SDS011;10963;50.934;4.668;2023-07-13T15:58:29;1.50;;;1.33;;
21601;SDS011;10963;50.934;4.668;2023-07-13T16:00:59;3.10;;;1.65;;
21601;SDS011;10963;50.934;4.668;2023-07-13T16:03:27;5.13;;;1.88;;
21601;SDS011;10963;50.934;4.668;2023-07-13T16:05:55;1.90;;;1.77;;
21601;SDS011;10963;50.934;4.668;2023-07-13T16:08:27;2.40;;;1.30;;
21601;SDS011;10963;50.934;4.668;2023-07-13T16:10:55;2.00;;;1.80;;